Time;durP1;ratioP1;P1;durP2;ratioP2;P2;SDS_P1;SDS_P2;PMS_P1;PMS_P2;Temp;Humidity;BMP_temperature;BMP_pressure;BME280_temperature;BME280_humidity;BME280_pressure;Samples;Min_cycle;Max_cycle;Signal;HPM_P1;HPM_P2
2022/07/03 04:01:24;;;;;;;3.30;3.07;;;18.00;99.90;;;;;;5552374;23;20466;-64
2022/07/03 04:03:51;;;;;;;4.60;3.50;;;18.00;99.90;;;;;;4994781;28;20462;-65
2022/07/03 04:06:20;;;;;;;5.60;4.10;;;18.00;99.90;;;;;;4994979;28;20454;-66
2022/07/03 04:08:46;;;;;;;3.93;3.63;;;17.90;99.90;;;;;;4994631;28;20450;-65
2022/07/03 04:11:13;;;;;;;3.50;3.30;;;18.00;99.90;;;;;;4994387;28;20481;-65
2022/07/03 04:13:40;;;;;;;4.80;3.50;;;18.00;99.90;;;;;;4994512;28;20456;-66
2022/07/03 04:16:06;;;;;;;4.00;3.80;;;18.00;99.90;;;;;;4994852;28;20469;-65
2022/07/03 04:18:35;;;;;;;4.67;4.10;;;18.00;99.90;;;;;;4994539;28;20457;-65
2022/07/03 04:21:02;;;;;;;3.97;3.67;;;18.10;99.90;;;;;;4994738;28;20470;-65
2022/07/03 04:23:28;;;;;;;4.90;3.50;;;18.10;99.90;;;;;;4994447;28;20461;-65
2022/07/03 04:25:55;;;;;;;4.53;4.23;;;18.10;99.90;;;;;;4994266;28;20949;-65
2022/07/03 04:28:22;;;;;;;4.50;3.70;;;18.20;99.90;;;;;;4994367;28;20886;-65
2022/07/03 04:30:49;;;;;;;3.47;3.27;;;18.20;99.90;;;;;;4994629;28;20489;-66
2022/07/03 04:33:16;;;;;;;3.63;3.33;;;18.20;99.90;;;;;;4994426;28;20504;-65
2022/07/03 04:35:44;;;;;;;3.10;2.90;;;18.20;99.90;;;;;;4994348;28;20504;-66
2022/07/03 04:38:11;;;;;;;3.40;3.30;;;18.20;99.90;;;;;;4994282;28;20998;-66
2022/07/03 04:40:38;;;;;;;4.00;3.80;;;18.30;99.90;;;;;;4994206;28;20481;-66
2022/07/03 04:43:04;;;;;;;4.43;4.03;;;18.30;99.90;;;;;;4993943;28;20454;-66
2022/07/03 04:45:31;;;;;;;3.80;3.50;;;18.40;99.90;;;;;;4994140;28;20460;-66
2022/07/03 04:47:58;;;;;;;3.90;3.70;;;18.40;99.90;;;;;;4994098;28;20457;-65
2022/07/03 04:50:25;;;;;;;3.93;3.60;;;18.40;99.90;;;;;;4993848;28;20469;-65
2022/07/03 04:52:53;;;;;;;4.10;3.80;;;18.50;99.90;;;;;;4994040;28;20453;-65
2022/07/03 04:55:20;;;;;;;3.80;3.60;;;18.50;99.90;;;;;;4994132;28;20461;-65
2022/07/03 04:57:46;;;;;;;3.63;3.50;;;18.60;99.90;;;;;;4994077;28;20454;-65
2022/07/03 05:00:14;;;;;;;3.87;3.60;;;18.60;99.90;;;;;;4993857;28;20450;-64
2022/07/03 05:02:40;;;;;;;3.73;3.43;;;18.60;99.90;;;;;;4994175;28;20508;-66
2022/07/03 05:05:08;;;;;;;4.60;3.67;;;18.70;99.90;;;;;;4994022;28;20489;-65
2022/07/03 05:07:35;;;;;;;3.37;3.13;;;18.70;99.90;;;;;;4993831;28;20453;-65
2022/07/03 05:10:03;;;;;;;4.67;4.37;;;18.80;99.90;;;;;;4995483;28;20454;-65
2022/07/03 05:12:30;;;;;;;3.40;3.20;;;18.80;99.90;;;;;;4997757;28;20480;-65
2022/07/03 05:14:57;;;;;;;3.90;3.60;;;18.90;99.90;;;;;;4997158;28;20457;-65
2022/07/03 05:17:24;;;;;;;4.20;3.90;;;18.90;99.90;;;;;;4997444;28;20457;-65
2022/07/03 05:20:23;;;;;;;4.13;3.00;;;18.90;99.90;;;;;;4997485;28;20454;-65
2022/07/03 05:22:37;;;;;;;3.33;3.00;;;19.00;99.90;;;;;;4997013;28;20460;-65
2022/07/03 05:25:07;;;;;;;5.70;3.43;;;19.20;99.90;;;;;;4998278;28;20457;-65
2022/07/03 05:27:36;;;;;;;3.40;3.10;;;19.20;99.90;;;;;;4998670;28;20473;-65
2022/07/03 05:30:03;;;;;;;5.57;4.20;;;19.30;99.90;;;;;;4997257;28;20464;-65
2022/07/03 05:32:30;;;;;;;3.50;3.30;;;19.50;99.90;;;;;;4996849;28;20484;-65
2022/07/03 05:34:57;;;;;;;3.60;3.27;;;19.60;99.90;;;;;;4997174;28;20481;-64
2022/07/03 05:37:23;;;;;;;3.87;3.53;;;19.70;99.90;;;;;;4997290;28;20457;-65
2022/07/03 05:39:50;;;;;;;3.03;2.83;;;19.80;99.90;;;;;;4996813;28;20853;-65
2022/07/03 05:42:18;;;;;;;3.67;3.33;;;19.80;99.90;;;;;;4997006;28;20509;-66
2022/07/03 05:44:45;;;;;;;3.60;3.30;;;19.90;99.90;;;;;;4997181;28;20449;-65
2022/07/03 05:47:11;;;;;;;3.30;3.10;;;20.00;99.90;;;;;;4999463;28;20454;-65
2022/07/03 05:49:38;;;;;;;2.93;2.63;;;20.10;99.90;;;;;;5005425;28;20453;-65
2022/07/03 05:52:05;;;;;;;3.40;3.20;;;20.30;99.90;;;;;;5004275;28;20482;-65
2022/07/03 05:54:32;;;;;;;2.90;2.70;;;20.40;99.90;;;;;;5001506;28;20464;-65
2022/07/03 05:56:59;;;;;;;3.57;3.23;;;20.40;99.90;;;;;;4997781;28;20462;-64
2022/07/03 05:59:27;;;;;;;3.10;2.80;;;20.50;99.90;;;;;;4997672;28;20464;-65
2022/07/03 06:01:53;;;;;;;3.90;3.07;;;20.70;99.90;;;;;;4996755;28;20477;-65
2022/07/03 06:04:20;;;;;;;3.20;3.00;;;20.80;99.90;;;;;;4996842;28;20453;-65
2022/07/03 06:06:47;;;;;;;3.53;3.27;;;21.00;99.90;;;;;;4996826;28;20454;-65
2022/07/03 06:09:13;;;;;;;3.07;2.87;;;21.10;99.90;;;;;;4996581;28;20461;-66
2022/07/03 06:11:40;;;;;;;5.77;3.23;;;21.30;99.90;;;;;;4996521;28;20485;-65
2022/07/03 06:14:07;;;;;;;3.33;2.87;;;21.50;99.90;;;;;;4996653;28;20864;-65
2022/07/03 06:16:35;;;;;;;2.73;2.63;;;21.60;99.90;;;;;;4999237;28;20862;-65
2022/07/03 06:19:01;;;;;;;2.63;2.43;;;21.70;99.90;;;;;;5011768;28;20458;-65
2022/07/03 06:21:28;;;;;;;5.03;3.70;;;21.70;99.90;;;;;;4997825;28;20477;-65
2022/07/03 06:23:55;;;;;;;3.20;3.00;;;21.70;99.90;;;;;;4996380;28;20948;-65
2022/07/03 06:26:21;;;;;;;3.03;2.83;;;21.80;99.90;;;;;;4996592;28;20819;-65
2022/07/03 06:28:48;;;;;;;3.80;3.50;;;21.90;99.90;;;;;;4996412;28;20462;-65
2022/07/03 06:31:15;;;;;;;2.83;2.70;;;22.10;99.90;;;;;;4996031;28;20481;-65
2022/07/03 06:33:43;;;;;;;5.43;2.80;;;22.30;99.90;;;;;;4996145;28;20461;-66
2022/07/03 06:36:09;;;;;;;3.10;2.50;;;22.60;99.90;;;;;;4996243;28;20531;-65
2022/07/03 06:38:36;;;;;;;2.53;2.40;;;22.90;99.90;;;;;;4996075;28;20454;-65
2022/07/03 06:41:03;;;;;;;3.10;3.00;;;23.20;99.90;;;;;;4996025;28;20477;-65
2022/07/03 06:43:30;;;;;;;2.90;2.70;;;23.50;99.90;;;;;;4995966;28;20454;-65
2022/07/03 06:45:56;;;;;;;4.03;2.60;;;23.70;99.90;;;;;;4995932;28;20458;-65
2022/07/03 06:48:23;;;;;;;2.63;2.50;;;23.80;99.90;;;;;;4995817;28;20462;-65
2022/07/03 06:50:52;;;;;;;2.57;2.47;;;23.90;99.90;;;;;;4995987;28;20470;-65
2022/07/03 06:53:19;;;;;;;2.47;2.37;;;24.10;99.90;;;;;;4995892;28;20465;-65
2022/07/03 06:55:45;;;;;;;2.43;2.30;;;24.50;99.90;;;;;;4995926;28;20454;-65
2022/07/03 06:58:12;;;;;;;2.40;2.30;;;24.70;99.90;;;;;;4998815;28;20453;-65
2022/07/03 07:00:39;;;;;;;2.43;2.23;;;25.00;99.90;;;;;;4995881;28;21000;-65
2022/07/03 07:03:06;;;;;;;3.80;2.13;;;25.30;99.90;;;;;;4995431;28;20940;-64
2022/07/03 07:05:32;;;;;;;3.03;2.80;;;25.70;99.90;;;;;;4995439;28;20468;-64
2022/07/03 07:08:00;;;;;;;1.93;1.80;;;26.10;99.90;;;;;;4995479;28;20866;-66
2022/07/03 07:10:27;;;;;;;2.27;2.07;;;26.70;99.90;;;;;;4995302;28;20461;-66
2022/07/03 07:12:54;;;;;;;2.40;2.20;;;27.30;99.90;;;;;;4995345;28;20481;-66
2022/07/03 07:15:21;;;;;;;3.37;2.20;;;27.90;99.90;;;;;;4995451;28;20457;-66
2022/07/03 07:17:47;;;;;;;2.53;2.43;;;28.40;99.90;;;;;;4995289;28;20858;-66
2022/07/03 07:20:14;;;;;;;1.90;1.80;;;28.90;99.80;;;;;;4995079;28;20512;-66
2022/07/03 07:22:41;;;;;;;2.23;1.93;;;29.50;97.90;;;;;;4995190;28;20504;-65
2022/07/03 07:25:09;;;;;;;3.27;2.10;;;29.90;95.40;;;;;;4995074;28;20460;-65
2022/07/03 07:27:36;;;;;;;2.20;2.10;;;30.30;93.60;;;;;;4995227;28;20454;-66
2022/07/03 07:30:04;;;;;;;1.90;1.80;;;30.70;93.00;;;;;;4995404;28;20454;-66
2022/07/03 07:32:30;;;;;;;2.30;2.23;;;31.10;91.00;;;;;;4995071;28;20477;-66
2022/07/03 07:34:57;;;;;;;2.00;1.90;;;31.00;90.90;;;;;;4995107;28;20476;-66
2022/07/03 07:37:24;;;;;;;1.60;1.50;;;31.60;89.20;;;;;;4995105;28;20457;-66
2022/07/03 07:39:51;;;;;;;2.00;1.80;;;31.80;87.50;;;;;;4995109;28;20460;-66
2022/07/03 07:42:19;;;;;;;3.87;1.70;;;32.30;85.10;;;;;;4995000;28;20474;-67
2022/07/03 07:44:46;;;;;;;1.73;1.73;;;32.80;81.20;;;;;;4995115;28;20643;-66
2022/07/03 07:47:12;;;;;;;1.83;1.73;;;33.20;83.60;;;;;;4995213;28;20458;-66
2022/07/03 07:49:39;;;;;;;2.27;1.90;;;33.50;79.10;;;;;;4994529;28;20461;-66
2022/07/03 07:52:06;;;;;;;2.10;1.93;;;33.70;79.50;;;;;;4994534;28;20492;-66
2022/07/03 07:54:33;;;;;;;2.23;2.03;;;34.00;75.00;;;;;;4994895;28;20453;-66
2022/07/03 07:57:00;;;;;;;2.07;1.97;;;34.20;72.90;;;;;;4994639;28;20524;-66
2022/07/03 07:59:28;;;;;;;2.00;1.90;;;34.40;72.70;;;;;;4994746;28;20464;-66
2022/07/03 08:07:42;;;;;;;1.43;1.43;;;34.90;66.40;;;;;;4966111;28;20469;-66
2022/07/03 08:10:09;;;;;;;1.83;1.73;;;35.20;64.10;;;;;;4995275;28;20457;-67
2022/07/03 08:12:36;;;;;;;2.00;1.40;;;35.00;64.60;;;;;;4994045;28;20983;-66
2022/07/03 08:15:05;;;;;;;1.80;1.70;;;35.40;66.10;;;;;;4994099;28;20803;-66
2022/07/03 08:17:31;;;;;;;4.90;1.30;;;35.90;61.40;;;;;;4994541;28;20457;-67
2022/07/03 08:19:58;;;;;;;1.57;1.50;;;36.40;60.00;;;;;;4994576;28;20457;-67
2022/07/03 08:22:25;;;;;;;1.63;1.43;;;36.90;58.20;;;;;;4994306;28;20473;-67
2022/07/03 08:24:51;;;;;;;1.70;1.60;;;37.30;57.60;;;;;;4994343;28;20460;-67
2022/07/03 08:27:19;;;;;;;1.67;1.30;;;37.50;55.40;;;;;;4994082;28;20969;-67
2022/07/03 08:29:45;;;;;;;5.97;1.20;;;37.90;54.50;;;;;;4994525;28;20456;-67
2022/07/03 08:32:13;;;;;;;1.70;1.60;;;37.50;53.80;;;;;;4994310;28;20481;-66
2022/07/03 08:34:40;;;;;;;5.43;1.40;;;37.40;53.90;;;;;;4994215;28;20453;-66
2022/07/03 08:37:07;;;;;;;4.23;1.63;;;37.30;53.90;;;;;;4994300;28;20457;-66
2022/07/03 08:39:33;;;;;;;1.93;1.37;;;37.30;54.20;;;;;;4994625;28;20442;-67
2022/07/03 08:42:00;;;;;;;2.90;1.70;;;37.60;52.40;;;;;;4994488;28;20523;-67
2022/07/03 08:44:28;;;;;;;1.70;1.70;;;37.80;52.00;;;;;;4995025;28;20554;-66
2022/07/03 08:46:56;;;;;;;1.50;1.40;;;38.00;50.80;;;;;;4998296;28;20488;-67
2022/07/03 08:49:26;;;;;;;1.53;1.30;;;38.10;50.10;;;;;;4998317;28;20505;-67
2022/07/03 08:51:54;;;;;;;1.43;1.43;;;38.40;53.70;;;;;;4998432;28;20485;-66
2022/07/03 08:54:21;;;;;;;3.17;1.23;;;38.30;50.00;;;;;;4997886;28;20952;-66
2022/07/03 08:56:48;;;;;;;1.10;1.10;;;38.30;49.40;;;;;;4997864;28;20460;-66
2022/07/03 08:59:15;;;;;;;2.90;1.07;;;38.50;48.30;;;;;;4997686;28;20991;-67
2022/07/03 09:01:44;;;;;;;2.10;1.30;;;38.30;48.20;;;;;;4997571;28;20877;-68
2022/07/03 09:04:13;;;;;;;1.40;1.10;;;38.30;50.00;;;;;;4997917;28;20480;-67
2022/07/03 09:06:42;;;;;;;2.73;1.13;;;38.30;46.70;;;;;;4997762;28;20457;-68
2022/07/03 09:09:09;;;;;;;1.70;1.20;;;38.10;46.90;;;;;;4997789;28;20457;-66
2022/07/03 09:11:36;;;;;;;0.87;0.83;;;38.20;46.30;;;;;;4997481;28;20575;-68
2022/07/03 09:14:06;;;;;;;1.23;1.13;;;38.40;47.60;;;;;;4997746;28;20461;-68
2022/07/03 09:16:34;;;;;;;0.80;0.80;;;38.70;46.80;;;;;;4997603;28;20453;-66
2022/07/03 09:19:02;;;;;;;0.93;0.93;;;39.10;45.90;;;;;;4997378;28;20206;-67
2022/07/03 09:21:37;;;;;;;0.90;0.90;;;39.20;42.60;;;;;;4999633;28;20472;-67
2022/07/03 09:24:07;;;;;;;0.80;0.80;;;39.50;44.00;;;;;;5013571;28;20209;-68
2022/07/03 09:26:34;;;;;;;0.73;0.73;;;39.10;43.00;;;;;;5008099;28;20191;-67
2022/07/03 09:29:01;;;;;;;0.87;0.87;;;39.30;45.90;;;;;;4998423;28;20198;-67
2022/07/03 09:31:29;;;;;;;1.33;0.70;;;39.60;41.30;;;;;;4997970;28;20253;-67
2022/07/03 09:33:59;;;;;;;1.20;1.10;;;39.60;40.20;;;;;;4997499;28;20293;-67
2022/07/03 09:36:43;;;;;;;1.27;0.93;;;39.70;42.30;;;;;;4997105;28;20568;-67
2022/07/03 09:39:17;;;;;;;1.60;0.97;;;39.90;41.60;;;;;;4997314;28;20186;-67
2022/07/03 09:41:55;;;;;;;1.00;1.00;;;39.50;41.90;;;;;;4997598;28;20220;-67
2022/07/03 09:44:36;;;;;;;0.80;0.80;;;39.90;42.60;;;;;;4997306;28;20200;-66
2022/07/03 09:47:14;;;;;;;1.03;1.03;;;40.20;41.70;;;;;;4997304;28;20186;-67
2022/07/03 09:49:54;;;;;;;0.90;0.90;;;40.40;41.90;;;;;;4998595;28;20198;-68
2022/07/03 09:52:35;;;;;;;0.93;0.93;;;40.10;43.10;;;;;;4996912;28;20262;-68
2022/07/03 09:55:14;;;;;;;0.93;0.93;;;40.30;44.20;;;;;;4998072;28;20237;-67
2022/07/03 09:57:43;;;;;;;3.05;1.00;;;40.50;41.30;;;;;;4997639;28;20278;-68
2022/07/03 10:00:18;;;;;;;1.27;1.00;;;40.40;40.70;;;;;;5001701;28;20194;-68
2022/07/03 10:02:55;;;;;;;3.63;1.00;;;40.50;44.30;;;;;;5003182;28;20178;-67
2022/07/03 10:05:23;;;;;;;2.65;1.38;;;40.70;42.80;;;;;;5000313;28;20198;-68
2022/07/03 10:07:54;;;;;;;1.00;1.00;;;40.60;41.60;;;;;;4997358;28;20198;-67
2022/07/03 10:10:23;;;;;;;1.90;1.00;;;40.60;42.80;;;;;;4997116;28;20240;-67
2022/07/03 10:12:51;;;;;;;1.40;1.38;;;40.50;41.80;;;;;;4996503;28;20221;-67
2022/07/03 10:15:19;;;;;;;1.08;1.05;;;40.70;42.00;;;;;;4997724;28;20237;-68
2022/07/03 10:17:49;;;;;;;1.63;1.20;;;40.10;40.60;;;;;;4996732;28;20208;-67
2022/07/03 10:20:19;;;;;;;1.47;1.00;;;39.70;41.50;;;;;;4996408;28;20221;-67
2022/07/03 10:22:48;;;;;;;1.00;1.00;;;39.70;40.50;;;;;;4996064;28;20625;-67
2022/07/03 10:25:17;;;;;;;3.70;1.00;;;39.80;41.00;;;;;;4996223;28;20715;-67
2022/07/03 10:27:45;;;;;;;1.47;0.80;;;39.50;41.40;;;;;;4996223;28;20232;-67
2022/07/03 10:30:14;;;;;;;1.00;1.00;;;39.20;42.30;;;;;;4996191;28;20453;-68
2022/07/03 10:32:42;;;;;;;4.43;1.97;;;39.40;42.50;;;;;;4996191;28;20222;-66
2022/07/03 10:35:10;;;;;;;0.83;0.83;;;39.60;42.10;;;;;;4996056;28;20214;-67
2022/07/03 10:37:47;;;;;;;1.57;1.20;;;39.60;42.30;;;;;;4995659;28;20685;-66
2022/07/03 10:46:11;;;;;;;1.13;1.13;;;39.80;43.60;;;;;;4996242;28;20194;-67
2022/07/03 10:49:08;;;;;;;1.30;1.30;;;40.10;42.70;;;;;;4995856;28;20358;-67
2022/07/03 10:51:55;;;;;;;4.40;1.37;;;40.30;40.20;;;;;;4916736;29;20229;-67
2022/07/03 10:54:23;;;;;;;1.23;1.23;;;40.00;39.60;;;;;;4988140;28;20194;-66
2022/07/03 10:57:18;;;;;;;1.33;1.30;;;40.00;40.30;;;;;;4995967;28;20209;-66
2022/07/03 11:00:09;;;;;;;2.57;1.07;;;39.50;41.40;;;;;;4996072;28;20277;-67
2022/07/03 11:02:40;;;;;;;0.87;0.87;;;39.60;42.60;;;;;;4985311;28;20245;-67
2022/07/03 11:05:12;;;;;;;1.63;1.07;;;39.60;41.20;;;;;;4995727;28;20203;-67
2022/07/03 11:08:11;;;;;;;1.27;0.97;;;39.40;41.30;;;;;;4994742;28;20198;-67
2022/07/03 11:10:42;;;;;;;3.30;1.60;;;39.70;44.40;;;;;;4995548;28;20229;-67
2022/07/03 11:13:12;;;;;;;1.70;1.07;;;39.70;41.30;;;;;;4995407;28;20203;-66
2022/07/03 11:15:42;;;;;;;1.10;1.10;;;39.70;40.90;;;;;;4995102;28;20676;-66
2022/07/03 11:18:10;;;;;;;1.03;1.03;;;39.50;42.20;;;;;;4995390;28;20198;-67
2022/07/03 11:20:47;;;;;;;1.17;1.10;;;39.40;42.70;;;;;;4995167;28;20723;-67
2022/07/03 11:23:18;;;;;;;1.17;1.17;;;39.10;41.90;;;;;;4995357;28;20508;-67
2022/07/03 11:25:46;;;;;;;1.00;1.00;;;38.80;42.10;;;;;;4995179;28;20474;-66
2022/07/03 11:28:46;;;;;;;2.07;1.30;;;38.30;43.80;;;;;;4995249;28;20493;-67
2022/07/03 11:31:23;;;;;;;1.50;1.40;;;37.70;43.50;;;;;;4994996;28;20475;-66
2022/07/03 11:33:57;;;;;;;1.80;1.70;;;37.20;46.90;;;;;;4995203;28;20465;-67
2022/07/03 11:36:28;;;;;;;0.90;0.90;;;37.00;45.20;;;;;;4995733;28;20912;-66
2022/07/03 11:39:06;;;;;;;1.37;1.20;;;36.20;44.40;;;;;;4996119;28;20861;-66
2022/07/03 11:41:45;;;;;;;0.90;0.90;;;36.00;45.80;;;;;;4994747;28;21002;-67
2022/07/03 11:44:16;;;;;;;1.37;1.00;;;35.50;45.70;;;;;;4994967;28;20434;-66
2022/07/03 11:46:49;;;;;;;1.23;1.23;;;35.00;46.00;;;;;;4994630;28;20912;-67
2022/07/03 11:49:17;;;;;;;4.20;0.93;;;34.90;47.90;;;;;;4994900;28;20466;-66
2022/07/03 11:51:55;;;;;;;1.87;1.37;;;34.80;48.70;;;;;;4994818;28;20484;-67
2022/07/03 11:54:22;;;;;;;1.10;0.80;;;34.60;48.70;;;;;;4994772;28;20516;-66
2022/07/03 11:56:49;;;;;;;1.10;1.10;;;34.60;49.80;;;;;;4994618;28;20799;-67
2022/07/03 11:59:15;;;;;;;3.23;1.40;;;34.60;48.50;;;;;;4994316;28;20948;-66
2022/07/03 12:01:43;;;;;;;1.20;1.17;;;34.70;50.00;;;;;;4994164;28;20624;-66
2022/07/03 12:04:12;;;;;;;1.10;1.10;;;34.50;51.30;;;;;;4994556;28;20445;-66
2022/07/03 12:06:40;;;;;;;0.80;0.80;;;34.70;52.00;;;;;;4994252;28;20516;-67
2022/07/03 12:09:15;;;;;;;1.43;1.40;;;34.90;48.40;;;;;;4994391;28;20492;-66
2022/07/03 12:11:52;;;;;;;1.27;1.20;;;35.00;48.00;;;;;;4994186;28;20983;-66
2022/07/03 12:14:33;;;;;;;1.43;1.40;;;35.10;49.70;;;;;;4994427;28;20829;-65
2022/07/03 12:17:01;;;;;;;1.20;1.20;;;35.10;50.00;;;;;;4994577;28;20441;-66
2022/07/03 12:19:28;;;;;;;1.00;1.00;;;35.10;50.00;;;;;;4993506;28;20480;-66
2022/07/03 12:21:54;;;;;;;1.30;1.20;;;35.00;49.70;;;;;;4994324;28;20481;-65
2022/07/03 12:24:21;;;;;;;1.90;1.00;;;35.20;49.20;;;;;;4993963;28;21008;-66
2022/07/03 12:26:49;;;;;;;3.27;0.90;;;35.10;49.10;;;;;;4994239;28;20508;-66
2022/07/03 12:29:17;;;;;;;1.23;1.10;;;34.90;49.20;;;;;;4994404;28;20461;-65
2022/07/03 12:31:46;;;;;;;1.50;0.97;;;35.00;48.30;;;;;;4994613;28;20523;-63
2022/07/03 12:34:16;;;;;;;1.10;1.07;;;34.80;51.00;;;;;;4993842;28;20997;-63
2022/07/03 12:36:55;;;;;;;1.20;1.20;;;34.80;48.50;;;;;;4994371;28;20482;-64
2022/07/03 12:39:22;;;;;;;1.37;1.33;;;34.90;51.40;;;;;;4994304;28;20437;-64
2022/07/03 12:41:49;;;;;;;1.20;1.20;;;34.90;51.50;;;;;;4994184;28;20477;-63
2022/07/03 12:44:20;;;;;;;4.00;1.20;;;35.10;50.10;;;;;;4994294;28;20460;-63
2022/07/03 12:46:48;;;;;;;1.20;1.10;;;35.00;48.10;;;;;;4994332;28;20536;-64
2022/07/03 12:49:16;;;;;;;1.10;1.10;;;35.00;49.90;;;;;;4994051;28;20457;-64
2022/07/03 12:51:45;;;;;;;1.00;1.00;;;34.90;47.30;;;;;;4994323;28;20532;-64
2022/07/03 12:54:13;;;;;;;1.13;1.03;;;34.80;47.60;;;;;;4994010;28;20995;-64
2022/07/03 12:56:40;;;;;;;0.90;0.90;;;34.50;47.40;;;;;;4993961;28;20945;-63
2022/07/03 12:59:18;;;;;;;1.20;1.20;;;34.40;48.10;;;;;;4994264;28;20899;-63
2022/07/03 13:01:46;;;;;;;1.33;1.20;;;34.40;49.20;;;;;;4994470;28;20497;-64
2022/07/03 13:04:17;;;;;;;1.50;1.40;;;34.60;51.90;;;;;;5000772;28;20460;-63
2022/07/03 13:06:46;;;;;;;1.30;1.20;;;34.80;49.20;;;;;;5005645;28;20537;-65
2022/07/03 13:09:13;;;;;;;1.87;1.27;;;34.80;49.90;;;;;;4997569;28;20462;-64
2022/07/03 13:11:41;;;;;;;0.80;0.80;;;34.80;49.10;;;;;;4994482;28;20485;-64
2022/07/03 13:14:10;;;;;;;1.50;1.30;;;34.70;49.00;;;;;;4994080;28;20476;-64
2022/07/03 13:16:42;;;;;;;1.00;1.00;;;34.80;48.00;;;;;;4993943;28;20453;-64
2022/07/03 13:19:10;;;;;;;1.07;1.07;;;34.60;48.80;;;;;;4993912;28;20448;-65
2022/07/03 13:21:37;;;;;;;1.50;1.40;;;34.40;49.00;;;;;;4993783;28;20477;-64
2022/07/03 13:24:07;;;;;;;1.10;1.10;;;34.50;53.80;;;;;;4993550;28;20941;-64
2022/07/03 13:26:34;;;;;;;1.03;1.03;;;34.50;50.40;;;;;;4993820;28;20460;-63
2022/07/03 13:29:01;;;;;;;1.10;1.10;;;34.40;50.50;;;;;;4993987;28;20460;-65
2022/07/03 13:31:28;;;;;;;1.67;1.30;;;34.40;50.80;;;;;;4996097;28;20473;-65
2022/07/03 13:33:55;;;;;;;1.40;1.30;;;34.60;50.40;;;;;;4997174;28;20539;-64
2022/07/03 13:36:22;;;;;;;1.47;1.03;;;34.60;49.20;;;;;;4997214;28;20455;-64
2022/07/03 13:38:49;;;;;;;3.90;1.27;;;34.70;51.40;;;;;;5000342;28;20453;-64
2022/07/03 13:41:18;;;;;;;1.10;1.10;;;34.70;51.10;;;;;;5001841;28;20477;-64
2022/07/03 13:43:45;;;;;;;1.10;1.03;;;34.70;53.20;;;;;;5000229;28;20803;-64
2022/07/03 13:46:12;;;;;;;2.50;1.00;;;34.70;51.20;;;;;;4997317;28;20464;-63
2022/07/03 13:48:39;;;;;;;1.37;1.10;;;34.80;50.70;;;;;;4997118;28;20503;-64
2022/07/03 13:51:05;;;;;;;1.10;1.10;;;34.80;49.80;;;;;;4996886;28;20476;-64
2022/07/03 13:53:33;;;;;;;1.20;1.20;;;34.50;47.90;;;;;;4996848;28;20477;-63
2022/07/03 13:55:59;;;;;;;2.63;1.30;;;34.40;51.30;;;;;;4996822;28;20465;-63
2022/07/03 13:58:28;;;;;;;1.43;1.00;;;34.40;50.50;;;;;;4996867;28;20457;-63
2022/07/03 14:00:55;;;;;;;0.90;0.90;;;34.20;51.70;;;;;;4996589;28;20489;-64
2022/07/03 14:03:22;;;;;;;0.80;0.80;;;34.30;52.50;;;;;;4996781;28;20438;-64
2022/07/03 14:05:50;;;;;;;1.20;1.20;;;34.20;51.40;;;;;;4996741;28;20453;-63
2022/07/03 14:08:18;;;;;;;1.73;1.10;;;34.30;49.70;;;;;;4996339;28;20464;-64
2022/07/03 14:10:44;;;;;;;1.03;1.00;;;34.40;52.30;;;;;;4996534;28;20473;-63
2022/07/03 14:13:11;;;;;;;1.53;1.53;;;34.40;52.40;;;;;;4996547;28;20996;-64
2022/07/03 14:15:39;;;;;;;1.07;1.07;;;34.30;52.60;;;;;;4997193;28;20457;-63
2022/07/03 14:18:06;;;;;;;2.83;1.17;;;34.30;52.40;;;;;;4996459;28;20457;-63
2022/07/03 14:20:33;;;;;;;4.13;0.93;;;34.30;51.30;;;;;;4996296;28;20461;-64
2022/07/03 14:22:59;;;;;;;1.07;1.00;;;34.10;49.50;;;;;;4996345;28;20454;-63
2022/07/03 14:25:26;;;;;;;1.07;1.07;;;34.00;52.80;;;;;;4996354;28;20484;-63
2022/07/03 14:33:22;;;;;;;1.00;1.00;;;33.80;52.50;;;;;;4996293;28;20593;-64
2022/07/03 14:35:49;;;;;;;1.10;1.10;;;33.80;52.40;;;;;;4996858;28;20458;-64
2022/07/03 14:38:16;;;;;;;1.07;1.00;;;33.90;51.70;;;;;;4996250;28;20464;-64
2022/07/03 14:40:42;;;;;;;1.43;1.30;;;33.80;52.50;;;;;;4996042;28;20838;-65
2022/07/03 14:43:09;;;;;;;1.07;1.07;;;33.90;54.40;;;;;;4996099;28;20460;-64
2022/07/03 14:45:36;;;;;;;1.03;1.03;;;33.90;52.80;;;;;;4996169;28;20532;-63
2022/07/03 14:48:04;;;;;;;1.10;1.00;;;33.70;51.30;;;;;;4995976;28;20460;-64
2022/07/03 14:50:31;;;;;;;1.33;1.23;;;33.60;52.10;;;;;;4995577;28;20814;-63
2022/07/03 14:52:58;;;;;;;1.43;1.33;;;33.40;52.60;;;;;;4996104;28;20857;-64
2022/07/03 14:55:32;;;;;;;1.30;1.20;;;33.50;54.00;;;;;;4996019;28;20456;-64
2022/07/03 14:58:05;;;;;;;1.40;1.40;;;33.30;53.10;;;;;;4996549;28;20441;-64
2022/07/03 15:00:34;;;;;;;1.27;0.90;;;33.30;53.30;;;;;;4999023;28;20473;-64
2022/07/03 15:03:06;;;;;;;1.10;1.10;;;33.20;51.80;;;;;;4999535;28;20449;-64
2022/07/03 15:05:34;;;;;;;4.00;1.13;;;33.30;53.30;;;;;;4998432;28;20465;-64
2022/07/03 15:08:10;;;;;;;1.23;1.20;;;33.30;51.60;;;;;;4999844;28;20937;-64
2022/07/03 15:10:38;;;;;;;1.10;1.10;;;33.40;51.80;;;;;;5000811;28;20473;-63
2022/07/03 15:13:06;;;;;;;1.40;1.30;;;33.20;51.10;;;;;;4999687;28;20461;-64
2022/07/03 15:15:34;;;;;;;0.90;0.90;;;32.90;52.00;;;;;;4998284;28;20485;-64
2022/07/03 15:18:02;;;;;;;1.10;1.10;;;32.90;51.00;;;;;;4997132;28;20815;-63
2022/07/03 15:20:32;;;;;;;1.40;1.30;;;32.90;52.30;;;;;;4997813;28;20445;-64
2022/07/03 15:23:00;;;;;;;4.00;1.30;;;32.80;52.80;;;;;;4996560;28;20457;-64
2022/07/03 15:25:30;;;;;;;1.03;1.00;;;32.90;53.90;;;;;;4995542;28;20449;-63
2022/07/03 15:27:57;;;;;;;6.10;1.20;;;32.90;51.80;;;;;;4995333;28;20527;-64
2022/07/03 15:30:24;;;;;;;1.27;1.17;;;33.10;53.00;;;;;;4995219;28;20449;-63
2022/07/03 15:32:53;;;;;;;1.07;1.07;;;33.00;51.10;;;;;;4995127;28;20449;-63
2022/07/03 15:35:21;;;;;;;1.23;1.23;;;33.10;52.40;;;;;;4994886;28;20482;-64
2022/07/03 15:38:02;;;;;;;3.43;1.33;;;33.00;51.10;;;;;;4994968;28;20449;-64
2022/07/03 15:40:33;;;;;;;1.23;1.20;;;32.80;51.10;;;;;;4995008;28;20536;-63
2022/07/03 15:43:51;;;;;;;1.20;1.20;;;32.80;52.50;;;;;;4994947;28;20850;-63
2022/07/03 15:46:26;;;;;;;1.03;1.03;;;32.80;52.80;;;;;;4934651;29;20486;-64
2022/07/03 15:49:12;;;;;;;1.47;1.00;;;32.70;51.50;;;;;;4984730;28;20925;-64
2022/07/03 15:51:46;;;;;;;1.03;1.03;;;32.70;51.20;;;;;;4994542;28;20818;-64
2022/07/03 15:54:27;;;;;;;1.33;0.80;;;32.50;50.60;;;;;;4994560;28;20458;-64
2022/07/03 15:56:59;;;;;;;1.57;1.00;;;32.30;52.40;;;;;;4994992;28;20438;-67
2022/07/03 15:59:30;;;;;;;2.30;1.10;;;32.30;53.40;;;;;;4994768;28;20500;-66
2022/07/03 16:02:16;;;;;;;4.20;1.03;;;32.30;51.50;;;;;;4994490;28;20497;-65
2022/07/03 16:04:56;;;;;;;6.30;1.33;;;32.30;52.50;;;;;;4994763;28;20434;-66
2022/07/03 16:07:24;;;;;;;1.20;1.20;;;32.20;52.20;;;;;;4994784;28;20441;-65
2022/07/03 16:09:53;;;;;;;1.53;1.43;;;32.20;53.10;;;;;;4995245;28;20453;-67
2022/07/03 16:12:20;;;;;;;1.53;1.40;;;32.20;52.90;;;;;;4994525;28;20835;-66
2022/07/03 16:14:48;;;;;;;2.73;2.53;;;32.20;53.20;;;;;;4994648;28;20509;-65
2022/07/03 16:17:17;;;;;;;3.70;3.40;;;32.30;52.90;;;;;;4994698;28;20449;-66
2022/07/03 16:19:46;;;;;;;2.67;1.90;;;32.20;51.50;;;;;;4994608;28;20458;-66
2022/07/03 16:22:13;;;;;;;1.47;1.37;;;32.30;51.90;;;;;;4994265;28;20547;-66
2022/07/03 16:24:41;;;;;;;1.30;1.20;;;32.10;51.40;;;;;;4995258;28;20787;-66
2022/07/03 16:27:14;;;;;;;1.83;1.30;;;32.20;51.80;;;;;;4994649;28;20457;-66
2022/07/03 16:29:41;;;;;;;1.27;1.17;;;32.20;52.40;;;;;;4994653;28;20512;-65
2022/07/03 16:32:13;;;;;;;2.07;1.50;;;32.00;52.20;;;;;;4994043;28;20560;-65
2022/07/03 16:34:48;;;;;;;2.50;1.10;;;32.00;52.00;;;;;;4994331;28;20552;-65
2022/07/03 16:37:22;;;;;;;0.93;0.93;;;31.90;51.40;;;;;;4994068;28;20433;-65
2022/07/03 16:39:51;;;;;;;2.73;1.10;;;31.80;51.60;;;;;;4994278;28;20453;-66
2022/07/03 16:42:22;;;;;;;1.60;1.30;;;31.80;52.90;;;;;;4994149;28;20501;-66
2022/07/03 16:44:50;;;;;;;1.70;1.60;;;31.80;52.80;;;;;;4994384;28;20441;-65
2022/07/03 16:47:18;;;;;;;2.77;1.00;;;31.60;52.40;;;;;;4997331;28;20457;-66
2022/07/03 16:49:46;;;;;;;1.03;1.03;;;31.40;52.80;;;;;;4997876;28;20465;-66
2022/07/03 16:52:19;;;;;;;1.47;1.47;;;31.30;52.80;;;;;;4995017;28;20484;-66
2022/07/03 16:54:46;;;;;;;1.40;1.30;;;31.10;53.60;;;;;;4994259;28;20468;-67
2022/07/03 16:57:13;;;;;;;1.47;1.23;;;31.00;53.50;;;;;;4993965;28;20457;-67
2022/07/03 16:59:41;;;;;;;1.27;1.17;;;30.80;53.90;;;;;;4994189;28;20460;-65
2022/07/03 17:02:14;;;;;;;3.33;1.00;;;30.60;54.10;;;;;;4993609;28;20509;-66
2022/07/03 17:04:42;;;;;;;1.27;1.03;;;30.40;54.70;;;;;;4994083;28;20541;-66
2022/07/03 17:07:11;;;;;;;1.27;1.27;;;30.30;55.70;;;;;;4997584;28;20456;-66
2022/07/03 17:09:39;;;;;;;3.53;1.50;;;30.20;55.60;;;;;;4998843;28;20457;-67
2022/07/03 17:12:07;;;;;;;3.80;0.97;;;30.00;55.40;;;;;;5010563;28;20488;-66
2022/07/03 17:14:34;;;;;;;1.00;1.00;;;30.00;56.20;;;;;;5000731;28;20473;-66
2022/07/03 17:17:06;;;;;;;1.40;1.17;;;29.90;56.50;;;;;;4997644;28;20453;-66